Verhnij Baskuncak, Russia
Current Conditions -  °F | °C
As of 6:00 PM on Thursday 30 Oct 2014 (Local Time) from URWW Reporting Station
Clear Clear  
Wind Chill: 41°   Ceiling: Unl
Heat Index: 45°   Visibility: 6mi
Dew Point: 36°   Wind: 7mph
Humidity: 71%   Direction: 130°SE
Pressure: 30.3"   Gusts: NA
Location:  48.22°N, 46.73°E
Report Text: URWW 301500Z 13003MPS CAVOK 07/02 Q1026 NOSIG RMK SC070
Loading
Personal Weather Stations






























Interactive Weather Map
Tropical Storm Tracking
New forecast layout! Learn more

10-Day Weather Forecast

Advertisements
Track Severe Weather on mobile